sensor_id;sensor_type;location;lat;lon;timestamp;P1;durP1;ratioP1;P2;durP2;ratioP2
19167;SDS011;9716;53.114;18.040;2023-04-25T00:02:16;3.45;;;1.70;;
19167;SDS011;9716;53.114;18.040;2023-04-25T00:04:46;9.95;;;2.55;;
19167;SDS011;9716;53.114;18.040;2023-04-25T00:07:16;5.72;;;2.33;;
19167;SDS011;9716;53.114;18.040;2023-04-25T00:09:44;3.10;;;1.92;;
19167;SDS011;9716;53.114;18.040;2023-04-25T00:12:14;3.47;;;1.92;;
19167;SDS011;9716;53.114;18.040;2023-04-25T00:14:43;2.22;;;2.03;;
19167;SDS011;9716;53.114;18.040;2023-04-25T00:17:12;2.08;;;1.67;;
19167;SDS011;9716;53.114;18.040;2023-04-25T00:19:40;5.85;;;2.25;;
19167;SDS011;9716;53.114;18.040;2023-04-25T00:22:08;3.03;;;1.83;;
19167;SDS011;9716;53.114;18.040;2023-04-25T00:24:37;2.15;;;1.95;;
19167;SDS011;9716;53.114;18.040;2023-04-25T00:27:05;5.45;;;3.00;;
19167;SDS011;9716;53.114;18.040;2023-04-25T00:29:35;3.25;;;2.38;;
19167;SDS011;9716;53.114;18.040;2023-04-25T00:32:03;3.58;;;2.00;;
19167;SDS011;9716;53.114;18.040;2023-04-25T00:34:32;4.93;;;2.47;;
19167;SDS011;9716;53.114;18.040;2023-04-25T00:37:01;4.60;;;1.98;;
19167;SDS011;9716;53.114;18.040;2023-04-25T00:39:29;4.80;;;2.83;;
19167;SDS011;9716;53.114;18.040;2023-04-25T00:41:58;4.10;;;2.90;;
19167;SDS011;9716;53.114;18.040;2023-04-25T00:44:29;5.30;;;3.00;;
19167;SDS011;9716;53.114;18.040;2023-04-25T00:47:00;4.95;;;2.35;;
19167;SDS011;9716;53.114;18.040;2023-04-25T00:49:30;5.30;;;2.35;;
19167;SDS011;9716;53.114;18.040;2023-04-25T00:51:58;3.47;;;2.70;;
19167;SDS011;9716;53.114;18.040;2023-04-25T00:54:27;5.50;;;2.22;;
19167;SDS011;9716;53.114;18.040;2023-04-25T00:56:57;4.15;;;2.33;;
19167;SDS011;9716;53.114;18.040;2023-04-25T00:59:27;3.60;;;2.35;;
19167;SDS011;9716;53.114;18.040;2023-04-25T01:01:56;3.58;;;2.47;;
19167;SDS011;9716;53.114;18.040;2023-04-25T01:04:28;2.92;;;2.15;;
19167;SDS011;9716;53.114;18.040;2023-04-25T01:06:56;4.53;;;2.35;;
19167;SDS011;9716;53.114;18.040;2023-04-25T01:09:26;3.35;;;1.73;;
19167;SDS011;9716;53.114;18.040;2023-04-25T01:11:55;3.10;;;1.58;;
19167;SDS011;9716;53.114;18.040;2023-04-25T01:14:24;5.13;;;2.13;;
19167;SDS011;9716;53.114;18.040;2023-04-25T01:16:52;3.70;;;2.08;;
19167;SDS011;9716;53.114;18.040;2023-04-25T01:19:21;3.13;;;1.65;;
19167;SDS011;9716;53.114;18.040;2023-04-25T01:21:52;2.85;;;1.92;;
19167;SDS011;9716;53.114;18.040;2023-04-25T01:24:21;1.95;;;1.58;;
19167;SDS011;9716;53.114;18.040;2023-04-25T01:26:49;3.03;;;2.40;;
19167;SDS011;9716;53.114;18.040;2023-04-25T01:29:19;6.38;;;2.20;;
19167;SDS011;9716;53.114;18.040;2023-04-25T01:31:48;2.53;;;1.92;;
19167;SDS011;9716;53.114;18.040;2023-04-25T01:34:17;3.28;;;1.90;;
19167;SDS011;9716;53.114;18.040;2023-04-25T01:36:46;8.68;;;3.05;;
19167;SDS011;9716;53.114;18.040;2023-04-25T01:39:18;4.40;;;1.90;;
19167;SDS011;9716;53.114;18.040;2023-04-25T01:41:47;2.42;;;1.98;;
19167;SDS011;9716;53.114;18.040;2023-04-25T01:44:16;3.30;;;2.25;;
19167;SDS011;9716;53.114;18.040;2023-04-25T01:46:44;2.97;;;1.88;;
19167;SDS011;9716;53.114;18.040;2023-04-25T01:49:13;3.42;;;1.70;;
19167;SDS011;9716;53.114;18.040;2023-04-25T01:51:41;2.65;;;1.85;;
19167;SDS011;9716;53.114;18.040;2023-04-25T01:54:11;3.13;;;2.03;;
19167;SDS011;9716;53.114;18.040;2023-04-25T01:56:41;3.38;;;2.03;;
19167;SDS011;9716;53.114;18.040;2023-04-25T01:59:10;3.53;;;1.60;;
19167;SDS011;9716;53.114;18.040;2023-04-25T02:01:38;2.80;;;2.03;;
19167;SDS011;9716;53.114;18.040;2023-04-25T02:04:07;3.55;;;2.22;;
19167;SDS011;9716;53.114;18.040;2023-04-25T02:06:35;2.45;;;1.80;;
19167;SDS011;9716;53.114;18.040;2023-04-25T02:09:04;2.92;;;2.17;;
19167;SDS011;9716;53.114;18.040;2023-04-25T02:11:32;3.10;;;1.83;;
19167;SDS011;9716;53.114;18.040;2023-04-25T02:14:02;4.72;;;2.00;;
19167;SDS011;9716;53.114;18.040;2023-04-25T02:16:30;2.58;;;1.95;;
19167;SDS011;9716;53.114;18.040;2023-04-25T02:18:59;3.42;;;1.67;;
19167;SDS011;9716;53.114;18.040;2023-04-25T02:21:27;2.17;;;1.75;;
19167;SDS011;9716;53.114;18.040;2023-04-25T02:23:57;4.10;;;1.83;;
19167;SDS011;9716;53.114;18.040;2023-04-25T02:26:26;3.72;;;1.60;;
19167;SDS011;9716;53.114;18.040;2023-04-25T02:28:54;1.60;;;1.50;;
19167;SDS011;9716;53.114;18.040;2023-04-25T02:31:24;1.98;;;1.38;;
19167;SDS011;9716;53.114;18.040;2023-04-25T02:33:53;2.95;;;2.17;;
19167;SDS011;9716;53.114;18.040;2023-04-25T02:36:22;3.10;;;1.77;;
19167;SDS011;9716;53.114;18.040;2023-04-25T02:38:50;3.90;;;2.42;;
19167;SDS011;9716;53.114;18.040;2023-04-25T02:41:19;2.72;;;1.67;;
19167;SDS011;9716;53.114;18.040;2023-04-25T02:43:47;2.28;;;1.80;;
19167;SDS011;9716;53.114;18.040;2023-04-25T02:46:16;2.72;;;1.98;;
19167;SDS011;9716;53.114;18.040;2023-04-25T02:48:59;3.88;;;1.95;;
19167;SDS011;9716;53.114;18.040;2023-04-25T02:51:27;1.90;;;1.30;;
19167;SDS011;9716;53.114;18.040;2023-04-25T02:53:57;3.47;;;1.63;;
19167;SDS011;9716;53.114;18.040;2023-04-25T02:56:25;2.05;;;1.83;;
19167;SDS011;9716;53.114;18.040;2023-04-25T02:58:53;2.15;;;1.45;;
19167;SDS011;9716;53.114;18.040;2023-04-25T03:01:22;5.65;;;2.05;;
19167;SDS011;9716;53.114;18.040;2023-04-25T03:03:50;1.60;;;1.50;;
19167;SDS011;9716;53.114;18.040;2023-04-25T03:06:21;2.35;;;1.55;;
19167;SDS011;9716;53.114;18.040;2023-04-25T03:08:49;1.42;;;1.23;;
19167;SDS011;9716;53.114;18.040;2023-04-25T03:11:17;2.13;;;1.55;;
19167;SDS011;9716;53.114;18.040;2023-04-25T03:13:47;2.03;;;1.35;;
19167;SDS011;9716;53.114;18.040;2023-04-25T03:16:16;1.88;;;1.20;;
19167;SDS011;9716;53.114;18.040;2023-04-25T03:18:45;1.38;;;1.20;;
19167;SDS011;9716;53.114;18.040;2023-04-25T03:21:13;2.95;;;1.50;;
19167;SDS011;9716;53.114;18.040;2023-04-25T03:23:44;1.85;;;1.40;;
19167;SDS011;9716;53.114;18.040;2023-04-25T03:26:12;1.70;;;1.38;;
19167;SDS011;9716;53.114;18.040;2023-04-25T03:28:41;2.10;;;1.13;;
19167;SDS011;9716;53.114;18.040;2023-04-25T03:31:09;1.67;;;1.42;;
19167;SDS011;9716;53.114;18.040;2023-04-25T03:33:38;2.00;;;1.25;;
19167;SDS011;9716;53.114;18.040;2023-04-25T03:36:07;1.98;;;1.30;;
19167;SDS011;9716;53.114;18.040;2023-04-25T03:38:36;1.70;;;1.10;;
19167;SDS011;9716;53.114;18.040;2023-04-25T03:41:06;1.50;;;1.10;;
19167;SDS011;9716;53.114;18.040;2023-04-25T03:43:34;1.52;;;1.33;;
19167;SDS011;9716;53.114;18.040;2023-04-25T03:46:03;1.17;;;0.95;;
19167;SDS011;9716;53.114;18.040;2023-04-25T03:48:32;1.52;;;1.30;;
19167;SDS011;9716;53.114;18.040;2023-04-25T03:51:00;1.10;;;0.90;;
19167;SDS011;9716;53.114;18.040;2023-04-25T03:53:29;1.55;;;1.17;;
19167;SDS011;9716;53.114;18.040;2023-04-25T03:55:57;1.67;;;1.00;;
19167;SDS011;9716;53.114;18.040;2023-04-25T03:58:27;1.65;;;1.08;;
19167;SDS011;9716;53.114;18.040;2023-04-25T04:00:56;1.20;;;1.10;;
19167;SDS011;9716;53.114;18.040;2023-04-25T04:03:25;1.58;;;1.23;;
19167;SDS011;9716;53.114;18.040;2023-04-25T04:05:53;3.25;;;1.50;;
19167;SDS011;9716;53.114;18.040;2023-04-25T04:08:22;2.30;;;1.50;;
19167;SDS011;9716;53.114;18.040;2023-04-25T04:10:51;1.13;;;0.98;;
19167;SDS011;9716;53.114;18.040;2023-04-25T04:13:19;1.20;;;1.10;;
19167;SDS011;9716;53.114;18.040;2023-04-25T04:15:49;3.08;;;1.15;;
19167;SDS011;9716;53.114;18.040;2023-04-25T04:18:18;1.73;;;1.33;;
19167;SDS011;9716;53.114;18.040;2023-04-25T04:20:47;1.58;;;1.15;;
19167;SDS011;9716;53.114;18.040;2023-04-25T04:23:15;0.90;;;0.90;;
19167;SDS011;9716;53.114;18.040;2023-04-25T04:25:43;1.65;;;1.00;;
19167;SDS011;9716;53.114;18.040;2023-04-25T04:28:12;1.63;;;1.20;;
19167;SDS011;9716;53.114;18.040;2023-04-25T04:30:40;1.88;;;1.52;;
19167;SDS011;9716;53.114;18.040;2023-04-25T04:33:15;3.90;;;2.50;;
19167;SDS011;9716;53.114;18.040;2023-04-25T04:35:45;4.65;;;2.38;;
19167;SDS011;9716;53.114;18.040;2023-04-25T04:38:15;7.38;;;2.35;;
19167;SDS011;9716;53.114;18.040;2023-04-25T04:40:43;4.20;;;2.40;;
19167;SDS011;9716;53.114;18.040;2023-04-25T04:43:12;5.25;;;2.38;;
19167;SDS011;9716;53.114;18.040;2023-04-25T04:45:43;4.38;;;2.40;;
19167;SDS011;9716;53.114;18.040;2023-04-25T04:48:12;4.03;;;1.90;;
19167;SDS011;9716;53.114;18.040;2023-04-25T04:50:42;2.40;;;1.63;;
19167;SDS011;9716;53.114;18.040;2023-04-25T04:53:12;1.90;;;1.52;;
19167;SDS011;9716;53.114;18.040;2023-04-25T04:55:40;3.15;;;1.42;;
19167;SDS011;9716;53.114;18.040;2023-04-25T04:58:09;2.10;;;1.60;;
19167;SDS011;9716;53.114;18.040;2023-04-25T05:00:38;3.25;;;1.58;;
19167;SDS011;9716;53.114;18.040;2023-04-25T05:03:07;1.77;;;1.30;;
19167;SDS011;9716;53.114;18.040;2023-04-25T05:05:35;2.28;;;1.45;;
19167;SDS011;9716;53.114;18.040;2023-04-25T05:08:08;2.13;;;1.30;;
19167;SDS011;9716;53.114;18.040;2023-04-25T05:10:36;3.63;;;1.40;;
19167;SDS011;9716;53.114;18.040;2023-04-25T05:13:05;2.05;;;1.17;;
19167;SDS011;9716;53.114;18.040;2023-04-25T05:15:33;2.67;;;1.55;;
19167;SDS011;9716;53.114;18.040;2023-04-25T05:18:02;6.95;;;1.40;;
19167;SDS011;9716;53.114;18.040;2023-04-25T05:20:30;1.73;;;1.20;;
19167;SDS011;9716;53.114;18.040;2023-04-25T05:22:59;2.53;;;1.25;;
19167;SDS011;9716;53.114;18.040;2023-04-25T05:25:29;3.15;;;1.50;;
19167;SDS011;9716;53.114;18.040;2023-04-25T05:27:57;2.10;;;1.30;;
19167;SDS011;9716;53.114;18.040;2023-04-25T05:30:26;2.25;;;1.30;;
19167;SDS011;9716;53.114;18.040;2023-04-25T05:32:55;1.63;;;1.02;;
19167;SDS011;9716;53.114;18.040;2023-04-25T05:35:23;0.90;;;0.90;;
19167;SDS011;9716;53.114;18.040;2023-04-25T05:37:52;2.05;;;1.40;;
19167;SDS011;9716;53.114;18.040;2023-04-25T05:40:20;1.58;;;1.20;;
19167;SDS011;9716;53.114;18.040;2023-04-25T05:42:50;1.25;;;1.15;;
19167;SDS011;9716;53.114;18.040;2023-04-25T05:45:19;2.97;;;1.60;;
19167;SDS011;9716;53.114;18.040;2023-04-25T05:47:47;1.30;;;1.20;;
19167;SDS011;9716;53.114;18.040;2023-04-25T05:50:16;2.40;;;1.70;;
19167;SDS011;9716;53.114;18.040;2023-04-25T05:52:45;2.08;;;1.45;;
19167;SDS011;9716;53.114;18.040;2023-04-25T05:55:13;2.92;;;1.55;;
19167;SDS011;9716;53.114;18.040;2023-04-25T05:57:42;1.40;;;1.20;;
19167;SDS011;9716;53.114;18.040;2023-04-25T06:00:13;2.13;;;1.50;;
19167;SDS011;9716;53.114;18.040;2023-04-25T06:02:43;3.28;;;1.30;;
19167;SDS011;9716;53.114;18.040;2023-04-25T06:05:11;2.05;;;1.33;;
19167;SDS011;9716;53.114;18.040;2023-04-25T06:07:40;5.90;;;1.77;;
19167;SDS011;9716;53.114;18.040;2023-04-25T06:10:09;4.47;;;1.25;;
19167;SDS011;9716;53.114;18.040;2023-04-25T06:12:37;5.95;;;1.20;;
19167;SDS011;9716;53.114;18.040;2023-04-25T06:15:06;1.63;;;1.30;;
19167;SDS011;9716;53.114;18.040;2023-04-25T06:17:54;2.20;;;1.42;;
19167;SDS011;9716;53.114;18.040;2023-04-25T06:20:23;3.75;;;1.20;;
19167;SDS011;9716;53.114;18.040;2023-04-25T06:22:52;3.13;;;1.13;;
19167;SDS011;9716;53.114;18.040;2023-04-25T06:25:20;2.72;;;1.75;;
19167;SDS011;9716;53.114;18.040;2023-04-25T06:27:49;1.52;;;1.27;;
19167;SDS011;9716;53.114;18.040;2023-04-25T06:30:17;0.90;;;0.90;;
19167;SDS011;9716;53.114;18.040;2023-04-25T06:32:49;2.25;;;1.45;;
19167;SDS011;9716;53.114;18.040;2023-04-25T06:35:19;2.70;;;1.58;;
19167;SDS011;9716;53.114;18.040;2023-04-25T06:37:48;1.48;;;1.10;;
19167;SDS011;9716;53.114;18.040;2023-04-25T06:40:16;3.15;;;1.55;;
19167;SDS011;9716;53.114;18.040;2023-04-25T06:42:45;1.25;;;1.13;;
19167;SDS011;9716;53.114;18.040;2023-04-25T06:45:13;1.40;;;1.30;;
19167;SDS011;9716;53.114;18.040;2023-04-25T06:47:42;2.33;;;1.33;;
19167;SDS011;9716;53.114;18.040;2023-04-25T06:50:10;1.40;;;1.30;;
19167;SDS011;9716;53.114;18.040;2023-04-25T06:52:40;1.95;;;0.98;;
19167;SDS011;9716;53.114;18.040;2023-04-25T06:55:09;1.40;;;1.13;;
19167;SDS011;9716;53.114;18.040;2023-04-25T06:57:37;2.90;;;1.20;;
19167;SDS011;9716;53.114;18.040;2023-04-25T07:00:06;1.98;;;1.40;;
19167;SDS011;9716;53.114;18.040;2023-04-25T07:02:36;1.30;;;1.20;;
19167;SDS011;9716;53.114;18.040;2023-04-25T07:05:05;3.60;;;1.30;;
19167;SDS011;9716;53.114;18.040;2023-04-25T07:07:34;1.60;;;1.13;;
19167;SDS011;9716;53.114;18.040;2023-04-25T07:10:04;1.52;;;1.20;;
19167;SDS011;9716;53.114;18.040;2023-04-25T07:12:33;3.72;;;1.95;;
19167;SDS011;9716;53.114;18.040;2023-04-25T07:15:02;3.40;;;1.35;;
19167;SDS011;9716;53.114;18.040;2023-04-25T07:17:32;2.13;;;1.13;;
19167;SDS011;9716;53.114;18.040;2023-04-25T07:20:01;2.35;;;1.38;;
19167;SDS011;9716;53.114;18.040;2023-04-25T07:22:31;1.40;;;1.30;;
19167;SDS011;9716;53.114;18.040;2023-04-25T07:25:00;2.17;;;1.15;;
19167;SDS011;9716;53.114;18.040;2023-04-25T07:27:30;4.85;;;1.65;;
19167;SDS011;9716;53.114;18.040;2023-04-25T07:29:58;1.50;;;1.35;;
19167;SDS011;9716;53.114;18.040;2023-04-25T07:32:27;2.05;;;1.50;;
19167;SDS011;9716;53.114;18.040;2023-04-25T07:34:56;1.73;;;1.10;;
19167;SDS011;9716;53.114;18.040;2023-04-25T07:37:24;1.30;;;0.98;;
19167;SDS011;9716;53.114;18.040;2023-04-25T07:39:53;3.08;;;1.17;;
19167;SDS011;9716;53.114;18.040;2023-04-25T07:42:21;1.13;;;1.02;;
19167;SDS011;9716;53.114;18.040;2023-04-25T07:44:51;2.60;;;0.90;;
19167;SDS011;9716;53.114;18.040;2023-04-25T07:47:20;0.95;;;0.85;;
19167;SDS011;9716;53.114;18.040;2023-04-25T07:49:49;2.15;;;0.90;;
19167;SDS011;9716;53.114;18.040;2023-04-25T07:52:17;1.10;;;1.00;;
19167;SDS011;9716;53.114;18.040;2023-04-25T07:54:46;2.42;;;1.17;;
19167;SDS011;9716;53.114;18.040;2023-04-25T07:57:15;1.88;;;1.42;;
19167;SDS011;9716;53.114;18.040;2023-04-25T07:59:44;1.33;;;1.23;;
19167;SDS011;9716;53.114;18.040;2023-04-25T08:02:14;1.25;;;1.13;;
19167;SDS011;9716;53.114;18.040;2023-04-25T08:04:43;2.35;;;1.35;;
19167;SDS011;9716;53.114;18.040;2023-04-25T08:07:13;3.15;;;1.58;;
19167;SDS011;9716;53.114;18.040;2023-04-25T08:09:41;1.83;;;1.20;;
19167;SDS011;9716;53.114;18.040;2023-04-25T08:12:10;3.63;;;1.60;;
19167;SDS011;9716;53.114;18.040;2023-04-25T08:14:38;2.20;;;1.40;;
19167;SDS011;9716;53.114;18.040;2023-04-25T08:17:07;1.30;;;1.20;;
19167;SDS011;9716;53.114;18.040;2023-04-25T08:19:37;1.98;;;1.50;;
19167;SDS011;9716;53.114;18.040;2023-04-25T08:22:06;1.77;;;1.45;;
19167;SDS011;9716;53.114;18.040;2023-04-25T08:24:34;3.35;;;1.80;;
19167;SDS011;9716;53.114;18.040;2023-04-25T08:27:05;2.28;;;1.60;;
19167;SDS011;9716;53.114;18.040;2023-04-25T08:29:34;4.07;;;1.60;;
19167;SDS011;9716;53.114;18.040;2023-04-25T08:32:03;5.40;;;1.63;;
19167;SDS011;9716;53.114;18.040;2023-04-25T08:34:33;2.22;;;1.48;;
19167;SDS011;9716;53.114;18.040;2023-04-25T08:37:04;7.80;;;1.80;;
19167;SDS011;9716;53.114;18.040;2023-04-25T08:39:33;1.45;;;1.35;;
19167;SDS011;9716;53.114;18.040;2023-04-25T08:42:01;1.42;;;1.20;;
19167;SDS011;9716;53.114;18.040;2023-04-25T08:44:34;3.28;;;1.33;;
19167;SDS011;9716;53.114;18.040;2023-04-25T08:47:03;3.80;;;1.70;;
19167;SDS011;9716;53.114;18.040;2023-04-25T08:49:35;8.25;;;1.42;;
19167;SDS011;9716;53.114;18.040;2023-04-25T08:52:06;3.22;;;1.63;;
19167;SDS011;9716;53.114;18.040;2023-04-25T08:54:37;1.77;;;1.30;;
19167;SDS011;9716;53.114;18.040;2023-04-25T08:57:11;3.75;;;1.48;;
19167;SDS011;9716;53.114;18.040;2023-04-25T08:59:40;2.00;;;1.05;;
19167;SDS011;9716;53.114;18.040;2023-04-25T09:02:12;2.67;;;1.00;;
19167;SDS011;9716;53.114;18.040;2023-04-25T09:04:43;2.47;;;1.55;;
19167;SDS011;9716;53.114;18.040;2023-04-25T09:07:13;4.07;;;1.67;;
19167;SDS011;9716;53.114;18.040;2023-04-25T09:09:48;3.30;;;1.58;;
19167;SDS011;9716;53.114;18.040;2023-04-25T09:12:17;2.58;;;1.20;;
19167;SDS011;9716;53.114;18.040;2023-04-25T09:15:00;3.85;;;1.40;;
19167;SDS011;9716;53.114;18.040;2023-04-25T09:17:31;4.80;;;1.40;;
19167;SDS011;9716;53.114;18.040;2023-04-25T09:20:07;2.25;;;1.45;;
19167;SDS011;9716;53.114;18.040;2023-04-25T09:22:38;2.47;;;1.20;;
19167;SDS011;9716;53.114;18.040;2023-04-25T09:25:10;1.27;;;1.17;;
19167;SDS011;9716;53.114;18.040;2023-04-25T09:27:49;1.20;;;1.10;;
19167;SDS011;9716;53.114;18.040;2023-04-25T09:30:19;1.70;;;1.45;;
19167;SDS011;9716;53.114;18.040;2023-04-25T09:32:57;4.20;;;1.77;;
19167;SDS011;9716;53.114;18.040;2023-04-25T09:35:35;3.03;;;1.30;;
19167;SDS011;9716;53.114;18.040;2023-04-25T09:38:09;2.30;;;1.73;;
19167;SDS011;9716;53.114;18.040;2023-04-25T09:40:39;1.85;;;1.40;;
19167;SDS011;9716;53.114;18.040;2023-04-25T09:43:18;2.47;;;1.40;;
19167;SDS011;9716;53.114;18.040;2023-04-25T09:45:48;1.70;;;1.50;;
19167;SDS011;9716;53.114;18.040;2023-04-25T09:48:18;2.58;;;1.40;;
19167;SDS011;9716;53.114;18.040;2023-04-25T09:50:52;2.05;;;1.27;;
19167;SDS011;9716;53.114;18.040;2023-04-25T09:53:33;2.60;;;1.48;;
19167;SDS011;9716;53.114;18.040;2023-04-25T09:56:04;5.72;;;1.63;;
19167;SDS011;9716;53.114;18.040;2023-04-25T09:58:35;3.47;;;1.48;;
19167;SDS011;9716;53.114;18.040;2023-04-25T10:01:05;2.33;;;1.67;;
19167;SDS011;9716;53.114;18.040;2023-04-25T10:03:36;1.20;;;1.10;;
19167;SDS011;9716;53.114;18.040;2023-04-25T10:06:07;1.23;;;0.93;;
19167;SDS011;9716;53.114;18.040;2023-04-25T10:08:39;1.77;;;1.30;;
19167;SDS011;9716;53.114;18.040;2023-04-25T10:11:08;2.35;;;1.23;;
19167;SDS011;9716;53.114;18.040;2023-04-25T10:13:36;2.33;;;1.33;;
19167;SDS011;9716;53.114;18.040;2023-04-25T10:16:05;1.75;;;1.40;;
19167;SDS011;9716;53.114;18.040;2023-04-25T10:18:33;1.73;;;0.95;;
19167;SDS011;9716;53.114;18.040;2023-04-25T10:21:03;1.33;;;1.23;;
19167;SDS011;9716;53.114;18.040;2023-04-25T10:23:33;1.67;;;1.23;;
19167;SDS011;9716;53.114;18.040;2023-04-25T10:26:06;2.55;;;1.63;;
19167;SDS011;9716;53.114;18.040;2023-04-25T10:28:54;2.28;;;0.93;;
19167;SDS011;9716;53.114;18.040;2023-04-25T10:31:24;1.75;;;1.35;;
19167;SDS011;9716;53.114;18.040;2023-04-25T10:33:53;1.50;;;1.17;;
19167;SDS011;9716;53.114;18.040;2023-04-25T10:36:23;1.98;;;1.10;;
19167;SDS011;9716;53.114;18.040;2023-04-25T10:38:53;2.28;;;1.50;;
19167;SDS011;9716;53.114;18.040;2023-04-25T10:41:23;2.95;;;1.60;;
19167;SDS011;9716;53.114;18.040;2023-04-25T10:43:58;2.08;;;1.58;;
19167;SDS011;9716;53.114;18.040;2023-04-25T10:46:28;5.57;;;1.65;;
19167;SDS011;9716;53.114;18.040;2023-04-25T10:48:57;2.95;;;1.98;;
19167;SDS011;9716;53.114;18.040;2023-04-25T10:51:28;2.60;;;1.50;;
19167;SDS011;9716;53.114;18.040;2023-04-25T10:54:16;1.50;;;1.40;;
19167;SDS011;9716;53.114;18.040;2023-04-25T10:56:48;1.35;;;1.10;;
19167;SDS011;9716;53.114;18.040;2023-04-25T10:59:18;1.83;;;1.00;;
19167;SDS011;9716;53.114;18.040;2023-04-25T11:01:51;2.83;;;1.30;;
19167;SDS011;9716;53.114;18.040;2023-04-25T11:04:22;3.78;;;1.63;;
19167;SDS011;9716;53.114;18.040;2023-04-25T11:07:10;1.85;;;1.10;;
19167;SDS011;9716;53.114;18.040;2023-04-25T11:09:50;3.65;;;1.38;;
19167;SDS011;9716;53.114;18.040;2023-04-25T11:12:21;2.72;;;1.08;;
19167;SDS011;9716;53.114;18.040;2023-04-25T11:14:49;2.15;;;1.38;;
19167;SDS011;9716;53.114;18.040;2023-04-25T11:17:18;2.78;;;1.48;;
19167;SDS011;9716;53.114;18.040;2023-04-25T11:19:49;4.65;;;1.30;;
19167;SDS011;9716;53.114;18.040;2023-04-25T11:22:17;4.32;;;1.63;;
19167;SDS011;9716;53.114;18.040;2023-04-25T11:24:46;2.28;;;1.40;;
19167;SDS011;9716;53.114;18.040;2023-04-25T11:27:15;11.55;;;1.40;;
19167;SDS011;9716;53.114;18.040;2023-04-25T11:29:45;2.05;;;1.45;;
19167;SDS011;9716;53.114;18.040;2023-04-25T11:32:15;6.80;;;1.40;;
19167;SDS011;9716;53.114;18.040;2023-04-25T11:34:46;1.80;;;1.27;;
19167;SDS011;9716;53.114;18.040;2023-04-25T11:37:16;1.90;;;1.10;;
19167;SDS011;9716;53.114;18.040;2023-04-25T11:39:44;2.15;;;1.42;;
19167;SDS011;9716;53.114;18.040;2023-04-25T11:42:14;2.72;;;1.27;;
19167;SDS011;9716;53.114;18.040;2023-04-25T11:44:42;2.33;;;1.13;;
19167;SDS011;9716;53.114;18.040;2023-04-25T11:47:12;2.38;;;1.52;;
19167;SDS011;9716;53.114;18.040;2023-04-25T11:49:41;3.10;;;1.48;;
19167;SDS011;9716;53.114;18.040;2023-04-25T11:52:09;2.22;;;1.35;;
19167;SDS011;9716;53.114;18.040;2023-04-25T11:54:38;2.55;;;1.33;;
19167;SDS011;9716;53.114;18.040;2023-04-25T11:57:08;1.50;;;1.20;;
19167;SDS011;9716;53.114;18.040;2023-04-25T11:59:36;2.28;;;1.40;;
19167;SDS011;9716;53.114;18.040;2023-04-25T12:02:04;1.60;;;1.40;;
19167;SDS011;9716;53.114;18.040;2023-04-25T12:04:35;1.50;;;1.40;;
19167;SDS011;9716;53.114;18.040;2023-04-25T12:07:04;2.70;;;1.38;;
19167;SDS011;9716;53.114;18.040;2023-04-25T12:09:33;1.98;;;1.70;;
19167;SDS011;9716;53.114;18.040;2023-04-25T12:12:02;1.77;;;1.60;;
19167;SDS011;9716;53.114;18.040;2023-04-25T12:14:33;2.28;;;1.33;;
19167;SDS011;9716;53.114;18.040;2023-04-25T12:17:03;2.83;;;1.73;;
19167;SDS011;9716;53.114;18.040;2023-04-25T12:19:36;3.60;;;1.73;;
19167;SDS011;9716;53.114;18.040;2023-04-25T12:22:18;3.03;;;1.50;;
19167;SDS011;9716;53.114;18.040;2023-04-25T12:24:47;1.83;;;1.52;;
19167;SDS011;9716;53.114;18.040;2023-04-25T12:27:16;2.15;;;1.58;;
19167;SDS011;9716;53.114;18.040;2023-04-25T12:29:52;3.17;;;1.52;;
19167;SDS011;9716;53.114;18.040;2023-04-25T12:32:21;3.17;;;1.50;;
19167;SDS011;9716;53.114;18.040;2023-04-25T12:34:51;1.30;;;1.20;;
19167;SDS011;9716;53.114;18.040;2023-04-25T12:37:20;2.47;;;1.58;;
19167;SDS011;9716;53.114;18.040;2023-04-25T12:39:50;3.28;;;1.60;;
19167;SDS011;9716;53.114;18.040;2023-04-25T12:42:18;2.35;;;1.55;;
19167;SDS011;9716;53.114;18.040;2023-04-25T12:44:47;5.03;;;1.52;;
19167;SDS011;9716;53.114;18.040;2023-04-25T12:47:16;4.07;;;1.30;;
19167;SDS011;9716;53.114;18.040;2023-04-25T12:49:44;3.38;;;1.38;;
19167;SDS011;9716;53.114;18.040;2023-04-25T12:52:14;3.35;;;1.77;;
19167;SDS011;9716;53.114;18.040;2023-04-25T12:54:42;1.95;;;1.38;;
19167;SDS011;9716;53.114;18.040;2023-04-25T12:57:11;2.97;;;1.48;;
19167;SDS011;9716;53.114;18.040;2023-04-25T12:59:39;1.20;;;1.10;;
19167;SDS011;9716;53.114;18.040;2023-04-25T13:02:08;10.85;;;1.70;;
19167;SDS011;9716;53.114;18.040;2023-04-25T13:04:37;2.17;;;1.17;;
19167;SDS011;9716;53.114;18.040;2023-04-25T13:07:05;2.40;;;1.45;;
19167;SDS011;9716;53.114;18.040;2023-04-25T13:09:35;1.95;;;1.30;;
19167;SDS011;9716;53.114;18.040;2023-04-25T13:12:04;4.07;;;1.30;;
19167;SDS011;9716;53.114;18.040;2023-04-25T13:14:34;5.68;;;1.40;;
19167;SDS011;9716;53.114;18.040;2023-04-25T13:17:02;1.42;;;0.95;;
19167;SDS011;9716;53.114;18.040;2023-04-25T13:19:31;1.63;;;1.20;;
19167;SDS011;9716;53.114;18.040;2023-04-25T13:22:00;1.30;;;1.17;;
19167;SDS011;9716;53.114;18.040;2023-04-25T13:24:30;3.60;;;1.30;;
19167;SDS011;9716;53.114;18.040;2023-04-25T13:27:00;1.50;;;0.98;;
19167;SDS011;9716;53.114;18.040;2023-04-25T13:29:29;1.58;;;1.27;;
19167;SDS011;9716;53.114;18.040;2023-04-25T13:31:58;1.35;;;1.25;;
19167;SDS011;9716;53.114;18.040;2023-04-25T13:34:27;2.25;;;1.33;;
19167;SDS011;9716;53.114;18.040;2023-04-25T13:36:56;2.15;;;1.45;;
19167;SDS011;9716;53.114;18.040;2023-04-25T13:39:24;2.00;;;1.40;;
19167;SDS011;9716;53.114;18.040;2023-04-25T13:41:53;2.40;;;1.58;;
19167;SDS011;9716;53.114;18.040;2023-04-25T13:44:23;4.53;;;1.60;;
19167;SDS011;9716;53.114;18.040;2023-04-25T13:46:52;1.50;;;1.40;;
19167;SDS011;9716;53.114;18.040;2023-04-25T13:49:20;2.22;;;1.52;;
19167;SDS011;9716;53.114;18.040;2023-04-25T13:51:49;1.85;;;1.52;;
19167;SDS011;9716;53.114;18.040;2023-04-25T13:54:18;1.77;;;1.55;;
19167;SDS011;9716;53.114;18.040;2023-04-25T13:56:47;1.38;;;1.27;;
19167;SDS011;9716;53.114;18.040;2023-04-25T13:59:15;1.75;;;1.35;;
19167;SDS011;9716;53.114;18.040;2023-04-25T14:01:45;3.28;;;1.63;;
19167;SDS011;9716;53.114;18.040;2023-04-25T14:04:14;1.83;;;1.38;;
19167;SDS011;9716;53.114;18.040;2023-04-25T14:06:42;2.28;;;1.70;;
19167;SDS011;9716;53.114;18.040;2023-04-25T14:09:11;2.08;;;1.70;;
19167;SDS011;9716;53.114;18.040;2023-04-25T14:11:40;4.35;;;1.65;;
19167;SDS011;9716;53.114;18.040;2023-04-25T14:14:08;1.73;;;1.38;;
19167;SDS011;9716;53.114;18.040;2023-04-25T14:16:37;2.35;;;1.85;;
19167;SDS011;9716;53.114;18.040;2023-04-25T14:19:07;4.07;;;1.88;;
19167;SDS011;9716;53.114;18.040;2023-04-25T14:21:36;3.90;;;2.10;;
19167;SDS011;9716;53.114;18.040;2023-04-25T14:24:04;1.38;;;1.17;;
19167;SDS011;9716;53.114;18.040;2023-04-25T14:26:33;4.72;;;1.50;;
19167;SDS011;9716;53.114;18.040;2023-04-25T14:29:04;1.80;;;1.33;;
19167;SDS011;9716;53.114;18.040;2023-04-25T14:31:34;4.05;;;1.40;;
19167;SDS011;9716;53.114;18.040;2023-04-25T14:34:02;1.98;;;1.75;;
19167;SDS011;9716;53.114;18.040;2023-04-25T14:36:32;6.47;;;1.48;;
19167;SDS011;9716;53.114;18.040;2023-04-25T14:39:02;2.50;;;1.50;;
19167;SDS011;9716;53.114;18.040;2023-04-25T14:41:32;1.95;;;1.35;;
19167;SDS011;9716;53.114;18.040;2023-04-25T14:44:00;2.47;;;1.67;;
19167;SDS011;9716;53.114;18.040;2023-04-25T14:46:29;3.17;;;1.73;;
19167;SDS011;9716;53.114;18.040;2023-04-25T14:48:57;2.15;;;1.33;;
19167;SDS011;9716;53.114;18.040;2023-04-25T14:51:26;3.20;;;1.52;;
19167;SDS011;9716;53.114;18.040;2023-04-25T14:53:56;4.22;;;1.42;;
19167;SDS011;9716;53.114;18.040;2023-04-25T14:56:25;1.65;;;1.45;;
19167;SDS011;9716;53.114;18.040;2023-04-25T14:58:53;3.95;;;1.60;;
19167;SDS011;9716;53.114;18.040;2023-04-25T15:01:22;4.93;;;1.70;;
19167;SDS011;9716;53.114;18.040;2023-04-25T15:03:50;3.20;;;1.52;;